createdAt,value
2022-11-08T00:02:20.240Z,97578.88
2022-11-08T00:04:46.837Z,97573.75
2022-11-08T00:07:31.820Z,97569.50
2022-11-08T00:10:16.803Z,97569.47
2022-11-08T00:13:01.591Z,97571.19
2022-11-08T00:15:28.157Z,97565.19
2022-11-08T00:17:54.618Z,97572.03
2022-11-08T00:20:21.110Z,97559.97
2022-11-08T00:22:47.611Z,97566.06
2022-11-08T00:25:14.102Z,97564.34
2022-11-08T00:27:40.565Z,97554.88
2022-11-08T00:30:07.482Z,97556.69
2022-11-08T00:32:34.065Z,97560.09
2022-11-08T00:35:00.576Z,97540.25
2022-11-08T00:37:30.066Z,97553.19
2022-11-08T00:39:56.569Z,97550.66
2022-11-08T00:42:23.091Z,97554.94
2022-11-08T00:44:49.566Z,97556.66
2022-11-08T00:47:16.071Z,97548.06
2022-11-08T00:49:42.561Z,97542.13
2022-11-08T00:52:09.178Z,97552.34
2022-11-08T00:54:35.680Z,97556.66
2022-11-08T00:57:02.203Z,97551.53
2022-11-08T00:59:28.690Z,97554.91
2022-11-08T01:01:55.294Z,97556.66
2022-11-08T01:04:21.878Z,97553.22
2022-11-08T01:06:48.393Z,97549.81
2022-11-08T01:09:14.921Z,97538.56
2022-11-08T01:11:46.607Z,97555.78
2022-11-08T01:14:14.002Z,97543.84
2022-11-08T01:16:40.579Z,97533.56
2022-11-08T01:19:07.085Z,97537.03
2022-11-08T01:21:33.589Z,97536.19
2022-11-08T01:24:00.084Z,97537.03
2022-11-08T01:26:27.945Z,97533.53
2022-11-08T01:28:54.854Z,97530.19
2022-11-08T01:31:23.107Z,97529.13
2022-11-08T01:33:51.497Z,97531.91
2022-11-08T01:36:20.687Z,97525.94
2022-11-08T01:38:47.454Z,97531.91
2022-11-08T01:41:14.512Z,97533.63
2022-11-08T01:43:45.675Z,97536.22
2022-11-08T01:46:18.246Z,97529.34
2022-11-08T01:49:19.040Z,97519.09
2022-11-08T01:51:59.442Z,97489.81
2022-11-08T01:54:38.430Z,97518.28
2022-11-08T01:57:06.491Z,97503.66
2022-11-08T01:59:33.254Z,97502.84
2022-11-08T02:01:59.840Z,97509.63
2022-11-08T02:04:26.426Z,97513.94
2022-11-08T02:06:52.923Z,97517.38
2022-11-08T02:09:19.404Z,97518.25
2022-11-08T02:11:46.875Z,97482.16
2022-11-08T02:14:13.424Z,97500.28
2022-11-08T02:16:39.923Z,97488.31
2022-11-08T02:19:06.502Z,97490.09
2022-11-08T02:21:45.792Z,97477.91
2022-11-08T02:24:12.482Z,97489.25
2022-11-08T02:26:39.112Z,97467.53
2022-11-08T02:29:28.540Z,97488.38
2022-11-08T02:31:55.278Z,97488.38
2022-11-08T02:34:25.993Z,97491.81
2022-11-08T02:36:52.526Z,97471.09
2022-11-08T02:39:19.022Z,97480.72
2022-11-08T02:41:45.502Z,97494.41
2022-11-08T02:44:12.017Z,97486.72
2022-11-08T02:46:38.537Z,97479.91
2022-11-08T02:49:05.065Z,97478.16
2022-11-08T02:51:31.554Z,97467.84
2022-11-08T02:53:58.053Z,97461.03
2022-11-08T02:56:24.596Z,97460.28
2022-11-08T02:58:51.086Z,97462.84
2022-11-08T03:01:17.710Z,97457.72
2022-11-08T03:03:44.321Z,97462.84
2022-11-08T03:06:10.825Z,97460.28
2022-11-08T03:08:37.315Z,97460.28
2022-11-08T03:11:03.809Z,97459.47
2022-11-08T03:13:30.287Z,97450.91
2022-11-08T03:15:56.746Z,97444.00
2022-11-08T03:18:23.249Z,97453.47
2022-11-08T03:20:49.705Z,97450.88
2022-11-08T03:23:16.214Z,97437.91
2022-11-08T03:25:42.710Z,97456.03
2022-11-08T03:28:09.326Z,97462.03
2022-11-08T03:30:36.037Z,97460.31
2022-11-08T03:33:02.550Z,97463.72
2022-11-08T03:35:29.039Z,97461.16
2022-11-08T03:37:56.372Z,97450.81
2022-11-08T03:40:23.093Z,97453.41
2022-11-08T03:42:49.610Z,97450.91
2022-11-08T03:45:16.278Z,97446.63
2022-11-08T03:47:43.529Z,97448.38
2022-11-08T03:50:10.285Z,97441.53
2022-11-08T03:52:56.369Z,97454.34
2022-11-08T03:55:24.576Z,97449.22
2022-11-08T03:57:51.286Z,97453.47
2022-11-08T04:00:19.621Z,97438.88
2022-11-08T04:02:46.537Z,97433.75
2022-11-08T04:05:13.437Z,97448.28
2022-11-08T04:07:40.091Z,97433.81
2022-11-08T04:10:07.677Z,97436.38
2022-11-08T04:12:52.787Z,97437.22
2022-11-08T04:15:20.979Z,97438.94
2022-11-08T04:18:07.540Z,97435.50
2022-11-08T04:20:52.763Z,97436.38
2022-11-08T04:23:19.273Z,97442.34
2022-11-08T04:25:45.778Z,97436.38
2022-11-08T04:28:12.237Z,97435.50
2022-11-08T04:30:38.725Z,97417.44
2022-11-08T04:33:05.357Z,97434.63
2022-11-08T04:35:31.961Z,97432.94
2022-11-08T04:37:59.990Z,97427.84
2022-11-08T04:40:26.694Z,97419.22
2022-11-08T04:42:53.184Z,97417.59
2022-11-08T04:45:19.695Z,97427.00
2022-11-08T04:47:48.488Z,97424.44
2022-11-08T04:50:15.555Z,97421.88
2022-11-08T04:52:42.146Z,97409.84
2022-11-08T04:55:09.006Z,97412.47
2022-11-08T04:57:35.578Z,97403.88
2022-11-08T05:00:02.058Z,97406.47
2022-11-08T05:02:28.697Z,97411.63
2022-11-08T05:04:55.287Z,97411.63
2022-11-08T05:07:21.777Z,97400.53
2022-11-08T05:09:48.327Z,97397.09
2022-11-08T05:12:14.830Z,97399.63
2022-11-08T05:14:41.338Z,97399.69
2022-11-08T05:17:07.879Z,97396.25
2022-11-08T05:19:52.706Z,97392.78
2022-11-08T05:22:37.470Z,97396.25
2022-11-08T05:25:04.185Z,97391.00
2022-11-08T05:27:30.677Z,97402.22
2022-11-08T05:29:57.147Z,97410.78
2022-11-08T05:32:23.666Z,97410.78
2022-11-08T05:34:50.130Z,97403.09
2022-11-08T05:37:16.619Z,97391.09
2022-11-08T05:39:43.121Z,97388.53
2022-11-08T05:42:09.665Z,97387.75
2022-11-08T05:44:36.195Z,97386.91
2022-11-08T05:47:02.743Z,97386.91
2022-11-08T05:49:29.219Z,97378.19
2022-11-08T05:51:55.876Z,97386.91
2022-11-08T05:54:22.384Z,97392.03
2022-11-08T05:56:48.890Z,97393.69
2022-11-08T05:59:15.360Z,97386.91
2022-11-08T06:01:41.929Z,97390.34
2022-11-08T06:04:08.498Z,97397.13
2022-11-08T06:06:34.991Z,97385.91
2022-11-08T06:09:01.501Z,97398.75
2022-11-08T06:11:28.374Z,97400.50
2022-11-08T06:13:54.997Z,97397.03
2022-11-08T06:16:22.228Z,97401.28
2022-11-08T06:18:48.775Z,97402.03
2022-11-08T06:21:16.661Z,97405.56
2022-11-08T06:23:43.177Z,97402.13
2022-11-08T06:26:09.731Z,97411.47
2022-11-08T06:28:36.298Z,97411.47
2022-11-08T06:31:03.171Z,97406.34
2022-11-08T06:33:29.728Z,97408.97
2022-11-08T06:35:56.291Z,97415.78
2022-11-08T06:38:22.787Z,97418.34
2022-11-08T06:40:49.366Z,97413.22
2022-11-08T06:43:19.566Z,97411.50
2022-11-08T06:45:46.230Z,97408.97
2022-11-08T06:48:12.704Z,97414.94
2022-11-08T06:50:39.211Z,97415.84
2022-11-08T06:53:06.991Z,97408.84
2022-11-08T06:55:33.872Z,97414.94
2022-11-08T06:58:00.428Z,97418.38
2022-11-08T07:00:27.097Z,97410.56
2022-11-08T07:02:57.903Z,97430.31
2022-11-08T07:05:24.988Z,97427.75
2022-11-08T07:07:54.122Z,97432.84
2022-11-08T07:10:21.693Z,97421.69
2022-11-08T07:12:48.515Z,97430.28
2022-11-08T07:15:15.051Z,97426.78
2022-11-08T07:17:41.543Z,97430.19
2022-11-08T07:20:08.558Z,97431.03
2022-11-08T07:22:35.594Z,97423.31
2022-11-08T07:25:02.151Z,97418.97
2022-11-08T07:27:28.683Z,97420.69
2022-11-08T07:29:55.161Z,97413.81
2022-11-08T07:32:21.740Z,97420.66
2022-11-08T07:34:48.259Z,97436.81
2022-11-08T07:37:14.770Z,97430.84
2022-11-08T07:39:41.244Z,97429.09
2022-11-08T07:42:07.758Z,97410.25
2022-11-08T07:44:34.315Z,97404.31
2022-11-08T07:47:00.806Z,97415.50
2022-11-08T07:49:27.298Z,97404.25
2022-11-08T07:51:53.780Z,97402.63
2022-11-08T07:54:20.278Z,97401.00
2022-11-08T07:56:46.752Z,97394.97
2022-11-08T07:59:13.285Z,97407.84
2022-11-08T08:01:39.812Z,97411.25
2022-11-08T08:04:06.364Z,97407.84
2022-11-08T08:06:33.750Z,97406.09
2022-11-08T08:09:00.334Z,97413.81
2022-11-08T08:11:32.391Z,97413.78
2022-11-08T08:14:00.062Z,97421.53
2022-11-08T08:16:26.541Z,97416.34
2022-11-08T08:18:56.292Z,97416.44
2022-11-08T08:21:23.401Z,97416.44
2022-11-08T08:23:49.888Z,97419.88
2022-11-08T08:26:16.395Z,97431.84
2022-11-08T08:28:42.902Z,97413.88
2022-11-08T08:31:09.469Z,97419.88
2022-11-08T08:33:37.423Z,97408.81
2022-11-08T08:36:04.343Z,97419.94
2022-11-08T08:38:31.577Z,97412.25
2022-11-08T08:40:58.452Z,97412.25
2022-11-08T08:43:25.008Z,97407.13
2022-11-08T08:45:51.555Z,97398.44
2022-11-08T08:48:18.094Z,97413.13
2022-11-08T08:50:44.589Z,97402.88
2022-11-08T08:53:11.137Z,97402.03
2022-11-08T08:55:38.830Z,97406.28
2022-11-08T08:58:05.823Z,97402.84
2022-11-08T09:03:19.963Z,97407.16
2022-11-08T09:05:46.937Z,97414.84
2022-11-08T09:08:15.755Z,97419.94
2022-11-08T09:10:42.367Z,97408.00
2022-11-08T09:13:08.916Z,97406.25
2022-11-08T09:15:35.437Z,97407.19
2022-11-08T09:18:02.063Z,97412.31
2022-11-08T09:20:28.599Z,97406.31
2022-11-08T09:22:55.085Z,97408.88
2022-11-08T09:25:21.609Z,97408.00
2022-11-08T09:27:48.085Z,97407.19
2022-11-08T09:30:14.729Z,97416.56
2022-11-08T09:35:27.864Z,97397.56
2022-11-08T09:37:54.375Z,97414.00
2022-11-08T09:40:27.414Z,97409.72
2022-11-08T09:43:08.459Z,97408.84
2022-11-08T09:45:43.926Z,97412.97
2022-11-08T09:48:21.531Z,97419.09
2022-11-08T09:50:48.083Z,97389.81
2022-11-08T09:53:34.849Z,97392.38
2022-11-08T09:56:15.889Z,97392.38
2022-11-08T09:58:51.457Z,97406.25
2022-11-08T10:01:18.486Z,97398.44
2022-11-08T10:03:52.179Z,97419.03
2022-11-08T10:06:46.396Z,97402.81
2022-11-08T10:09:12.899Z,97405.44
2022-11-08T10:11:52.559Z,97407.13
2022-11-08T10:14:28.044Z,97394.31
2022-11-08T10:17:19.420Z,97392.63
2022-11-08T10:19:51.920Z,97398.59
2022-11-08T10:22:29.502Z,97391.75
2022-11-08T10:25:26.967Z,97391.75
2022-11-08T10:27:54.869Z,97382.25
2022-11-08T10:30:23.269Z,97391.75
2022-11-08T10:32:54.483Z,97396.00
2022-11-08T10:35:38.215Z,97389.19
2022-11-08T10:38:13.694Z,97382.41
2022-11-08T10:40:42.885Z,97370.41
2022-11-08T10:43:12.139Z,97387.53
2022-11-08T10:45:38.674Z,97380.69
2022-11-08T10:48:05.470Z,97373.00
2022-11-08T10:50:44.905Z,97379.84
2022-11-08T10:53:23.440Z,97367.88
2022-11-08T10:56:00.191Z,97361.91
2022-11-08T10:58:40.811Z,97355.84
2022-11-08T11:01:18.596Z,97354.22
2022-11-08T11:03:46.192Z,97354.13
2022-11-08T11:06:32.844Z,97367.88
2022-11-08T11:09:01.160Z,97380.69
2022-11-08T11:11:36.344Z,97364.47
2022-11-08T11:14:21.915Z,97360.19
2022-11-08T11:16:53.880Z,97355.03
2022-11-08T11:19:20.459Z,97357.56
2022-11-08T11:21:46.943Z,97361.03
2022-11-08T11:24:20.713Z,97355.06
2022-11-08T11:26:56.407Z,97351.69
2022-11-08T11:29:25.832Z,97340.59
2022-11-08T11:31:53.065Z,97344.84
2022-11-08T11:34:19.488Z,97346.56
2022-11-08T11:36:55.645Z,97341.47
2022-11-08T11:39:28.620Z,97333.75
2022-11-08T11:42:44.553Z,97321.69
2022-11-08T11:45:17.941Z,97332.03
2022-11-08T11:48:17.190Z,97333.75
2022-11-08T11:50:48.376Z,97322.63
2022-11-08T11:53:23.018Z,97320.84
2022-11-08T11:56:07.946Z,97324.34
2022-11-08T11:59:15.105Z,97319.25
2022-11-08T12:01:47.536Z,97320.13
2022-11-08T12:04:21.740Z,97315.84
2022-11-08T12:07:05.282Z,97316.69
2022-11-08T12:09:48.608Z,97300.28
2022-11-08T12:12:42.544Z,97317.56
2022-11-08T12:15:11.996Z,97315.00
2022-11-08T12:17:56.635Z,97317.56
2022-11-08T12:20:42.070Z,97321.78
2022-11-08T12:23:36.844Z,97320.13
2022-11-08T12:26:37.022Z,97319.25
2022-11-08T12:29:24.774Z,97315.88
2022-11-08T12:32:09.411Z,97311.56
2022-11-08T12:34:45.043Z,97311.56
2022-11-08T12:37:29.217Z,97314.13
2022-11-08T12:40:04.938Z,97315.00
2022-11-08T12:42:58.365Z,97320.13
2022-11-08T12:45:41.835Z,97315.88
2022-11-08T12:48:27.232Z,97298.78
2022-11-08T12:51:08.767Z,97303.00
2022-11-08T12:54:13.026Z,97303.06
2022-11-08T12:56:41.552Z,97303.91
2022-11-08T12:59:29.027Z,97291.94
2022-11-08T13:01:55.539Z,97263.41
2022-11-08T13:04:31.023Z,97301.31
2022-11-08T13:07:30.531Z,97299.63
2022-11-08T13:10:07.863Z,97301.31
2022-11-08T13:12:48.834Z,97302.19
2022-11-08T13:15:17.819Z,97287.56
2022-11-08T13:18:06.768Z,97294.47
2022-11-08T13:20:43.102Z,97296.19
2022-11-08T13:30:45.019Z,97277.19
2022-11-08T13:33:15.431Z,97287.66
2022-11-08T13:36:14.614Z,97281.72
2022-11-08T13:38:59.060Z,97281.72
2022-11-08T13:41:25.858Z,97285.94
2022-11-08T13:43:55.979Z,97281.59
2022-11-08T13:46:31.299Z,97289.38
2022-11-08T13:48:57.674Z,97291.06
2022-11-08T13:51:40.452Z,97286.81
2022-11-08T13:54:22.386Z,97285.09
2022-11-08T13:56:55.136Z,97281.63
2022-11-08T13:59:30.752Z,97289.38
2022-11-08T14:02:03.334Z,97287.72
2022-11-08T14:04:40.137Z,97285.94
2022-11-08T14:07:12.721Z,97287.72
2022-11-08T14:09:45.377Z,97284.31
2022-11-08T14:12:34.204Z,97261.91
2022-11-08T14:15:07.263Z,97277.47
2022-11-08T14:17:45.067Z,97260.13
2022-11-08T14:20:17.491Z,97280.88
2022-11-08T14:22:48.887Z,97275.72
2022-11-08T14:25:29.456Z,97271.44
2022-11-08T14:27:56.594Z,97280.03
2022-11-08T14:30:23.742Z,97284.31
2022-11-08T14:33:26.672Z,97269.78
2022-11-08T14:36:14.931Z,97275.72
2022-11-08T14:38:47.447Z,97281.72
2022-11-08T14:41:25.245Z,97281.72
2022-11-08T14:43:52.034Z,97280.88
2022-11-08T14:46:29.240Z,97271.47
2022-11-08T14:48:56.693Z,97259.47
2022-11-08T14:51:23.592Z,97268.91
2022-11-08T14:53:51.484Z,97259.53
2022-11-08T14:56:25.189Z,97260.38
2022-11-08T14:58:52.557Z,97262.09
2022-11-08T15:01:24.178Z,97247.38
2022-11-08T15:04:00.703Z,97258.56
2022-11-08T15:06:39.306Z,97261.25
2022-11-08T15:09:06.974Z,97263.81
2022-11-08T15:11:40.041Z,97262.94
2022-11-08T15:14:07.662Z,97257.81
2022-11-08T15:16:54.586Z,97262.09
2022-11-08T15:19:28.677Z,97258.69
2022-11-08T15:21:55.447Z,97252.72
2022-11-08T15:24:38.925Z,97251.88
2022-11-08T15:27:23.921Z,97251.03
2022-11-08T15:29:58.263Z,97248.47
2022-11-08T15:32:24.772Z,97251.88
2022-11-08T15:34:58.532Z,97227.78
2022-11-08T15:37:35.470Z,97246.75
2022-11-08T15:40:03.813Z,97233.06
2022-11-08T15:42:30.372Z,97256.09
2022-11-08T15:45:12.335Z,97233.91
2022-11-08T15:47:42.718Z,97242.47
2022-11-08T15:50:22.574Z,97228.72
2022-11-08T15:52:50.786Z,97250.16
2022-11-08T15:55:22.511Z,97244.19
2022-11-08T15:57:49.326Z,97240.75
2022-11-08T16:00:18.720Z,97238.16
2022-11-08T16:02:45.259Z,97243.31
2022-11-08T16:05:22.723Z,97247.59
2022-11-08T16:07:49.439Z,97242.47
2022-11-08T16:10:17.675Z,97221.81
2022-11-08T16:12:45.370Z,97239.09
2022-11-08T16:15:13.233Z,97255.28
2022-11-08T16:17:39.925Z,97233.97
2022-11-08T16:20:34.600Z,97233.06
2022-11-08T16:23:02.561Z,97243.38
2022-11-08T16:25:29.648Z,97246.81
2022-11-08T16:27:58.375Z,97252.78
2022-11-08T16:30:24.922Z,97253.66
2022-11-08T16:32:51.415Z,97247.66
2022-11-08T16:35:17.986Z,97247.59
2022-11-08T16:37:44.513Z,97247.59
2022-11-08T16:40:21.090Z,97250.22
2022-11-08T16:42:48.478Z,97250.19
2022-11-08T16:45:15.230Z,97250.22
2022-11-08T16:47:42.778Z,97254.47
2022-11-08T16:50:24.343Z,97251.03
2022-11-08T16:52:50.852Z,97242.50
2022-11-08T16:55:18.458Z,97249.34
2022-11-08T16:57:45.150Z,97242.44
2022-11-08T17:00:16.556Z,97245.00
2022-11-08T17:02:52.706Z,97253.59
2022-11-08T17:05:23.271Z,97246.78
2022-11-08T17:07:53.201Z,97254.47
2022-11-08T17:10:28.154Z,97249.34
2022-11-08T17:12:54.739Z,97236.41
2022-11-08T17:15:22.909Z,97240.63
2022-11-08T17:17:49.942Z,97245.03
2022-11-08T17:20:17.843Z,97250.16
2022-11-08T17:22:44.866Z,97255.25
2022-11-08T17:25:12.339Z,97255.25
2022-11-08T17:27:39.074Z,97258.59
2022-11-08T17:30:06.520Z,97254.31
2022-11-08T17:32:34.455Z,97258.66
2022-11-08T17:35:00.986Z,97263.78
2022-11-08T17:37:27.468Z,97263.81
2022-11-08T17:39:55.592Z,97266.34
2022-11-08T17:42:22.630Z,97262.88
2022-11-08T17:44:49.722Z,97274.06
2022-11-08T17:47:16.567Z,97279.19
2022-11-08T17:49:44.265Z,97274.91
2022-11-08T17:52:11.723Z,97286.00
2022-11-08T17:54:38.227Z,97287.72
2022-11-08T17:57:04.718Z,97286.00
2022-11-08T17:59:31.221Z,97285.94
2022-11-08T18:01:57.854Z,97279.16
2022-11-08T18:04:24.433Z,97281.72
2022-11-08T18:06:51.009Z,97280.88
2022-11-08T18:09:17.805Z,97262.72
2022-11-08T18:11:47.773Z,97273.19
2022-11-08T18:14:15.340Z,97270.63
2022-11-08T18:16:41.840Z,97269.72
2022-11-08T18:19:08.322Z,97267.16
2022-11-08T18:21:34.846Z,97280.88
2022-11-08T18:24:01.392Z,97269.78
2022-11-08T18:26:27.873Z,97273.19
2022-11-08T18:28:54.422Z,97274.03
2022-11-08T18:31:21.303Z,97274.00
2022-11-08T18:33:47.924Z,97282.59
2022-11-08T18:36:15.472Z,97282.59
2022-11-08T18:38:45.644Z,97286.00
2022-11-08T18:41:13.580Z,97273.19
2022-11-08T18:43:40.087Z,97277.47
2022-11-08T18:46:08.388Z,97274.00
2022-11-08T18:48:35.677Z,97274.06
2022-11-08T18:51:03.548Z,97264.50
2022-11-08T18:53:30.421Z,97272.34
2022-11-08T18:55:56.927Z,97276.63
2022-11-08T18:58:23.527Z,97274.06
2022-11-08T19:00:51.920Z,97273.19
2022-11-08T19:03:18.733Z,97280.00
2022-11-08T19:05:48.411Z,97282.59
2022-11-08T19:08:15.567Z,97270.53
2022-11-08T19:10:56.102Z,97279.16
2022-11-08T19:13:24.036Z,97273.19
2022-11-08T19:16:11.985Z,97264.53
2022-11-08T19:18:38.529Z,97278.28
2022-11-08T19:21:06.765Z,97282.59
2022-11-08T19:23:33.383Z,97283.41
2022-11-08T19:26:04.438Z,97281.72
2022-11-08T19:28:36.078Z,97280.00
2022-11-08T19:31:02.687Z,97280.81
2022-11-08T19:33:29.912Z,97289.34
2022-11-08T19:36:00.365Z,97293.66
2022-11-08T19:38:26.830Z,97267.88
2022-11-08T19:40:53.330Z,97286.88
2022-11-08T19:43:20.043Z,97287.75
2022-11-08T19:45:52.408Z,97290.31
2022-11-08T19:48:19.270Z,97278.16
2022-11-08T19:50:46.136Z,97289.38
2022-11-08T19:53:12.642Z,97286.88
2022-11-08T19:55:39.124Z,97284.31
2022-11-08T19:58:05.695Z,97280.88
2022-11-08T20:00:32.187Z,97271.44
2022-11-08T20:02:58.702Z,97276.63
2022-11-08T20:05:25.248Z,97274.06
2022-11-08T20:07:51.744Z,97276.66
2022-11-08T20:10:18.240Z,97247.25
2022-11-08T20:12:44.734Z,97280.00
2022-11-08T20:15:11.240Z,97278.34
2022-11-08T20:17:37.745Z,97278.34
2022-11-08T20:20:05.624Z,97275.78
2022-11-08T20:22:32.123Z,97264.66
2022-11-08T20:24:58.623Z,97280.06
2022-11-08T20:27:25.102Z,97276.59
2022-11-08T20:29:51.937Z,97277.44
2022-11-08T20:32:18.435Z,97278.34
2022-11-08T20:34:46.124Z,97278.28
2022-11-08T20:37:14.474Z,97273.97
2022-11-08T20:39:41.142Z,97280.06
2022-11-08T20:42:07.651Z,97277.50
2022-11-08T20:44:34.152Z,97270.63
2022-11-08T20:47:06.290Z,97277.47
2022-11-08T20:49:33.387Z,97272.38
2022-11-08T20:51:59.891Z,97271.50
2022-11-08T20:54:26.478Z,97264.63
2022-11-08T20:56:52.959Z,97263.75
2022-11-08T20:59:19.475Z,97267.25
2022-11-08T21:01:46.124Z,97262.97
2022-11-08T21:04:12.715Z,97265.53
2022-11-08T21:06:39.410Z,97267.25
2022-11-08T21:11:53.067Z,97250.03
2022-11-08T21:14:19.565Z,97263.84
2022-11-08T21:17:15.050Z,97266.38
2022-11-08T21:19:32.527Z,97266.38
2022-11-08T21:22:15.085Z,97262.94
2022-11-08T21:24:42.465Z,97260.38
2022-11-08T21:27:09.266Z,97262.09
2022-11-08T21:29:35.754Z,97259.50
2022-11-08T21:32:02.579Z,97265.50
2022-11-08T21:34:32.623Z,97246.56
2022-11-08T21:36:59.472Z,97250.16
2022-11-08T21:39:26.163Z,97256.13
2022-11-08T21:41:52.680Z,97252.72
2022-11-08T21:44:19.832Z,97247.56
2022-11-08T21:46:46.343Z,97243.31
2022-11-08T21:49:12.882Z,97257.81
2022-11-08T21:51:39.424Z,97257.81
2022-11-08T21:54:06.173Z,97261.13
2022-11-08T21:56:33.774Z,97269.78
2022-11-08T21:59:01.028Z,97274.03
2022-11-08T22:01:30.500Z,97270.59
2022-11-08T22:03:58.279Z,97255.22
2022-11-08T22:06:24.839Z,97255.22
2022-11-08T22:08:51.386Z,97249.28
2022-11-08T22:11:18.116Z,97262.06
2022-11-08T22:13:44.683Z,97258.63
2022-11-08T22:16:11.204Z,97264.59
2022-11-08T22:21:40.464Z,97258.63
2022-11-08T22:24:08.351Z,97266.31
2022-11-08T22:26:34.849Z,97255.09
2022-11-08T22:29:01.359Z,97253.50
2022-11-08T22:31:27.852Z,97256.06
2022-11-08T22:33:54.364Z,97261.19
2022-11-08T22:36:20.914Z,97260.31
2022-11-08T22:38:47.518Z,97250.03
2022-11-08T22:41:17.518Z,97257.75
2022-11-08T22:43:44.289Z,97268.00
2022-11-08T22:46:10.895Z,97250.06
2022-11-08T22:48:37.407Z,97249.25
2022-11-08T22:51:04.274Z,97245.81
2022-11-08T22:53:30.803Z,97244.97
2022-11-08T22:55:57.333Z,97244.13
2022-11-08T22:58:23.812Z,97259.47
2022-11-08T23:00:50.359Z,97264.59
2022-11-08T23:03:17.153Z,97265.38
2022-11-08T23:05:55.127Z,97266.28
2022-11-08T23:08:22.959Z,97265.41
2022-11-08T23:11:08.084Z,97262.81
2022-11-08T23:13:54.494Z,97266.28
2022-11-08T23:16:33.802Z,97257.63
2022-11-08T23:19:19.878Z,97260.28
2022-11-08T23:22:05.895Z,97251.75
2022-11-08T23:24:32.386Z,97250.03
2022-11-08T23:27:18.610Z,97259.44
2022-11-08T23:30:04.138Z,97252.50
2022-11-08T23:32:30.664Z,97254.31
2022-11-08T23:34:57.137Z,97247.34
2022-11-08T23:37:23.755Z,97243.94
2022-11-08T23:40:13.059Z,97254.31
2022-11-08T23:42:57.872Z,97258.56
2022-11-08T23:45:24.399Z,97255.13
2022-11-08T23:47:51.710Z,97251.72
2022-11-08T23:50:18.291Z,97263.69
2022-11-08T23:52:44.774Z,97249.09
2022-11-08T23:55:11.269Z,97250.88
2022-11-08T23:57:37.774Z,97256.88
